Time;durP1;ratioP1;P1;durP2;ratioP2;P2;SDS_P1;SDS_P2;PMS_P1;PMS_P2;Temp;Humidity;BMP_temperature;BMP_pressure;BME280_temperature;BME280_humidity;BME280_pressure;Samples;Min_cycle;Max_cycle;Signal;HPM_P1;HPM_P2
2022/05/17 00:01:01;;;;;;;10.73;5.17;;;;;;;-145.69;100.00;72047.16;5076270;28;20209;-76
2022/05/17 00:03:28;;;;;;;13.60;4.40;;;;;;;-145.69;100.00;72051.16;5076591;28;20199;-76
2022/05/17 00:05:56;;;;;;;13.40;5.20;;;;;;;-145.69;100.00;72031.25;5076480;28;20206;-76
2022/05/17 00:08:22;;;;;;;8.30;4.70;;;;;;;-145.69;100.00;72059.09;5075846;28;20191;-76
2022/05/17 00:10:49;;;;;;;14.97;5.03;;;;;;;-145.69;100.00;72071.03;5076098;28;20199;-76
2022/05/17 00:13:16;;;;;;;15.03;5.27;;;;;;;-145.69;100.00;72075.03;5076138;28;20198;-76
2022/05/17 00:15:46;;;;;;;11.17;5.27;;;;;;;-145.69;100.00;72067.06;5076137;28;20731;-76
2022/05/17 00:18:14;;;;;;;19.77;5.37;;;;;;;-145.69;100.00;72071.03;5076225;28;20258;-76
2022/05/17 00:20:41;;;;;;;11.43;5.10;;;;;;;-145.69;100.00;72063.09;5076220;28;20561;-76
2022/05/17 00:23:11;;;;;;;16.33;4.60;;;;;;;-145.69;100.00;72067.06;5076041;28;20613;-76
2022/05/17 00:25:39;;;;;;;9.20;4.77;;;;;;;-145.69;100.00;72067.06;5076046;28;20195;-75
2022/05/17 00:28:09;;;;;;;13.67;4.80;;;;;;;-145.69;100.00;72075.03;5075627;28;20267;-76
2022/05/17 00:30:41;;;;;;;11.60;4.80;;;;;;;-145.69;100.00;72071.03;5076061;28;20203;-76
2022/05/17 00:33:11;;;;;;;10.90;5.10;;;;;;;-145.69;100.00;72079.00;5075424;28;20198;-76
2022/05/17 00:35:43;;;;;;;13.70;5.50;;;;;;;-145.69;100.00;72075.03;5075898;28;20194;-76
2022/05/17 00:38:11;;;;;;;11.53;4.90;;;;;;;-145.69;100.00;72094.94;5075409;28;20215;-76
2022/05/17 00:40:42;;;;;;;15.87;6.17;;;;;;;-145.69;100.00;72071.03;5075545;28;20206;-76
2022/05/17 00:43:10;;;;;;;12.90;5.53;;;;;;;-145.69;100.00;72059.09;5075708;28;20199;-76
2022/05/17 00:45:44;;;;;;;12.30;6.23;;;;;;;-145.69;100.00;72063.09;5075502;28;20715;-76
2022/05/17 00:48:14;;;;;;;22.30;6.27;;;;;;;-145.69;100.00;72051.16;5075621;28;20198;-76
2022/05/17 00:50:47;;;;;;;20.65;7.97;;;;;;;-145.69;100.00;72035.22;5074923;28;20444;-76
2022/05/17 00:53:19;;;;;;;12.50;5.90;;;;;;;-145.69;100.00;72067.06;5075155;28;20684;-76
2022/05/17 00:55:57;;;;;;;15.13;7.13;;;;;;;-145.69;100.00;72061.09;5075596;28;20207;-76
2022/05/17 00:58:29;;;;;;;13.90;5.90;;;;;;;-145.69;100.00;72057.13;5075630;28;20234;-75
2022/05/17 01:01:02;;;;;;;20.00;7.47;;;;;;;-145.69;100.00;72051.16;5075522;28;20202;-76
2022/05/17 01:03:36;;;;;;;14.27;6.43;;;;;;;-145.69;100.00;72061.09;5075271;28;20286;-76
2022/05/17 01:06:05;;;;;;;21.17;6.10;;;;;;;-145.69;100.00;72053.13;5071287;28;20223;-76
2022/05/17 01:08:32;;;;;;;16.63;5.07;;;;;;;-145.69;100.00;72065.06;5063296;28;20198;-76
2022/05/17 01:11:03;;;;;;;16.10;5.70;;;;;;;-145.69;100.00;72061.09;5074860;28;20558;-76
2022/05/17 01:16:14;;;;;;;11.40;5.40;;;;;;;-145.69;100.00;72073.03;5075006;28;20209;-76
2022/05/17 01:18:44;;;;;;;12.67;5.43;;;;;;;-145.69;100.00;72084.97;5074862;28;20701;-76
2022/05/17 01:21:13;;;;;;;9.17;4.80;;;;;;;-145.69;100.00;72094.94;5075225;28;20194;-76
2022/05/17 01:23:40;;;;;;;17.27;6.07;;;;;;;-145.69;100.00;72061.09;5074738;28;20561;-76
2022/05/17 01:26:09;;;;;;;12.63;6.20;;;;;;;-145.69;100.00;72055.13;5074880;28;20199;-76
2022/05/17 01:28:37;;;;;;;15.63;6.47;;;;;;;-145.69;100.00;72041.19;5074344;28;20676;-76
2022/05/17 01:31:05;;;;;;;15.20;6.13;;;;;;;-145.69;100.00;72057.13;5074891;28;20581;-76
2022/05/17 01:33:36;;;;;;;13.43;5.53;;;;;;;-145.69;100.00;72082.97;5074898;28;20285;-75
2022/05/17 01:36:06;;;;;;;12.07;4.97;;;;;;;-145.69;100.00;72086.97;5074861;28;20622;-76
2022/05/17 01:38:36;;;;;;;16.13;5.27;;;;;;;-145.69;100.00;72081.00;5074513;28;20230;-76
2022/05/17 01:41:06;;;;;;;15.03;5.90;;;;;;;-145.69;100.00;72079.00;5074578;28;20653;-76
2022/05/17 01:43:38;;;;;;;13.60;5.70;;;;;;;-145.69;100.00;72077.00;5074577;28;20222;-76
2022/05/17 01:46:06;;;;;;;15.80;6.10;;;;;;;-145.69;100.00;72067.06;5074663;28;20234;-76
2022/05/17 01:48:33;;;;;;;18.43;6.17;;;;;;;-145.69;100.00;72063.09;5074648;28;20538;-76
2022/05/17 01:51:04;;;;;;;18.37;6.83;;;;;;;-145.69;100.00;72061.09;5074398;28;20304;-76
2022/05/17 01:53:35;;;;;;;19.30;6.20;;;;;;;-145.69;100.00;72063.09;5073862;28;20229;-76
2022/05/17 01:56:01;;;;;;;14.50;5.90;;;;;;;-145.69;100.00;72071.03;5074202;28;20218;-76
2022/05/17 01:58:31;;;;;;;16.77;6.03;;;;;;;-145.69;100.00;72075.03;5073220;28;20716;-75
2022/05/17 02:00:57;;;;;;;14.83;5.67;;;;;;;-145.69;100.00;72079.00;5074276;28;20199;-75
2022/05/17 02:03:23;;;;;;;12.57;5.53;;;;;;;-145.69;100.00;72079.00;5074016;28;20207;-76
2022/05/17 02:05:50;;;;;;;21.30;5.87;;;;;;;-145.69;100.00;72073.03;5073956;28;20199;-75
2022/05/17 02:08:19;;;;;;;10.17;5.13;;;;;;;-145.69;100.00;72081.00;5073710;28;20206;-76
2022/05/17 02:10:49;;;;;;;17.07;5.37;;;;;;;-145.69;100.00;72082.97;5073996;28;20206;-76
2022/05/17 02:13:25;;;;;;;14.73;5.60;;;;;;;-145.69;100.00;72082.97;5073996;28;20213;-76
2022/05/17 02:15:55;;;;;;;9.77;5.60;;;;;;;-145.69;100.00;72086.97;5073881;28;20203;-76
2022/05/17 02:18:24;;;;;;;16.10;6.67;;;;;;;-145.69;100.00;72067.06;5073628;28;20712;-76
2022/05/17 02:20:51;;;;;;;16.03;6.40;;;;;;;-145.69;100.00;72077.00;5073815;28;20198;-76
2022/05/17 02:23:21;;;;;;;20.63;5.73;;;;;;;-145.69;100.00;72081.00;5073551;28;20554;-76
2022/05/17 02:25:49;;;;;;;21.27;6.27;;;;;;;-145.69;100.00;72086.97;5073536;28;20606;-76
2022/05/17 02:28:17;;;;;;;13.03;5.70;;;;;;;-145.69;100.00;72100.91;5073204;28;20202;-76
2022/05/17 02:30:44;;;;;;;12.17;5.40;;;;;;;-145.69;100.00;72110.84;5073596;28;20199;-76
2022/05/17 02:33:12;;;;;;;17.93;6.37;;;;;;;-145.69;100.00;72102.88;5073343;28;20198;-76
2022/05/17 02:35:39;;;;;;;13.77;6.67;;;;;;;-145.69;100.00;72094.94;5073634;28;20202;-76
2022/05/17 02:38:10;;;;;;;15.57;6.57;;;;;;;-145.69;100.00;72096.91;5073092;28;20222;-75
2022/05/17 02:40:40;;;;;;;15.33;6.60;;;;;;;-145.69;100.00;72094.94;5073606;28;20203;-76
2022/05/17 02:43:13;;;;;;;11.47;5.90;;;;;;;-145.69;100.00;72110.84;5073206;28;20657;-76
2022/05/17 02:45:39;;;;;;;10.13;5.20;;;;;;;-145.69;100.00;72108.84;5073334;28;20248;-76
2022/05/17 02:48:09;;;;;;;10.90;5.57;;;;;;;-145.69;100.00;72114.81;5073413;28;20203;-76
2022/05/17 02:50:36;;;;;;;13.87;6.50;;;;;;;-145.69;100.00;72118.81;5073034;28;20584;-76
2022/05/17 02:53:06;;;;;;;15.40;6.23;;;;;;;-145.69;100.00;72114.81;5073322;28;20195;-76
2022/05/17 02:55:32;;;;;;;12.03;5.83;;;;;;;-145.69;100.00;72118.81;5072270;28;20198;-76
2022/05/17 02:57:59;;;;;;;16.40;6.67;;;;;;;-145.69;100.00;72116.81;5072100;28;20270;-76
2022/05/17 03:00:27;;;;;;;14.67;6.50;;;;;;;-145.69;100.00;72114.81;5072848;28;20294;-77
2022/05/17 03:02:53;;;;;;;19.80;6.00;;;;;;;-145.69;100.00;72128.75;5073152;28;20240;-76
2022/05/17 03:05:21;;;;;;;17.17;6.00;;;;;;;-145.69;100.00;72130.75;5072584;28;20203;-76
2022/05/17 03:07:48;;;;;;;17.60;6.00;;;;;;;-145.69;100.00;72136.72;5073100;28;20603;-76
2022/05/17 03:10:14;;;;;;;19.20;8.00;;;;;;;-145.69;100.00;72134.72;5071105;28;20430;-77
2022/05/17 03:12:41;;;;;;;21.73;6.80;;;;;;;-145.69;100.00;72136.72;5055555;28;20199;-76
2022/05/17 03:15:09;;;;;;;24.83;7.17;;;;;;;-145.69;100.00;72134.72;5053107;28;20636;-76
2022/05/17 03:17:37;;;;;;;15.40;6.27;;;;;;;-145.69;100.00;72142.69;5052875;28;20269;-76
2022/05/17 03:20:04;;;;;;;14.30;6.13;;;;;;;-145.69;100.00;72144.69;5053001;28;20199;-76
2022/05/17 03:22:30;;;;;;;14.97;6.40;;;;;;;-145.69;100.00;72138.72;5052809;28;20202;-76
2022/05/17 03:24:57;;;;;;;26.80;6.93;;;;;;;-145.69;100.00;72150.66;5060702;28;20264;-76
2022/05/17 03:27:23;;;;;;;15.77;6.60;;;;;;;-145.69;100.00;72150.66;5072745;28;20199;-76
2022/05/17 03:29:50;;;;;;;14.13;5.93;;;;;;;-145.69;100.00;72154.63;5072626;28;20206;-76
2022/05/17 03:32:16;;;;;;;14.37;6.10;;;;;;;-145.69;100.00;72146.69;5072257;28;20684;-76
2022/05/17 03:34:44;;;;;;;15.57;6.10;;;;;;;-145.69;100.00;72154.63;5072667;28;20533;-76
2022/05/17 03:37:11;;;;;;;18.40;7.17;;;;;;;-145.69;100.00;72160.59;5072692;28;20203;-76
2022/05/17 03:39:37;;;;;;;13.70;6.47;;;;;;;-145.69;100.00;72150.66;5072596;28;20262;-76
2022/05/17 03:42:04;;;;;;;17.00;7.57;;;;;;;-145.69;100.00;72146.69;5072649;28;20199;-76
2022/05/17 03:44:31;;;;;;;12.60;6.37;;;;;;;-145.69;100.00;72154.63;5072743;28;20747;-76
2022/05/17 03:46:57;;;;;;;20.07;7.37;;;;;;;-145.69;100.00;72154.63;5072716;28;20264;-76
2022/05/17 03:49:24;;;;;;;16.13;6.60;;;;;;;-145.69;100.00;72142.69;5072808;28;20226;-76
2022/05/17 03:51:51;;;;;;;19.70;7.57;;;;;;;-145.69;100.00;72138.72;5072541;28;20265;-76
2022/05/17 03:54:21;;;;;;;15.40;7.27;;;;;;;-145.69;100.00;72140.69;5072568;28;20198;-75
2022/05/17 03:56:48;;;;;;;16.60;6.93;;;;;;;-145.69;100.00;72142.69;5072823;28;20290;-76
2022/05/17 03:59:15;;;;;;;12.77;6.77;;;;;;;-145.69;100.00;72146.69;5072629;28;20226;-76
2022/05/17 04:01:41;;;;;;;18.30;7.13;;;;;;;-145.69;100.00;72138.72;5072773;28;20207;-76
2022/05/17 04:04:07;;;;;;;17.40;7.20;;;;;;;-145.69;100.00;72142.69;5072170;28;20199;-76
2022/05/17 04:06:34;;;;;;;17.63;7.33;;;;;;;-145.69;100.00;72146.69;5072499;28;20255;-76
2022/05/17 04:09:02;;;;;;;17.93;6.97;;;;;;;-145.69;100.00;72154.63;5072433;28;20210;-76
2022/05/17 04:11:28;;;;;;;16.67;6.70;;;;;;;-145.69;100.00;72158.63;5072088;28;20206;-76
2022/05/17 04:13:56;;;;;;;13.37;7.17;;;;;;;-145.69;100.00;72158.63;5072698;28;20708;-76
2022/05/17 04:16:22;;;;;;;14.30;6.50;;;;;;;-145.69;100.00;72150.66;5072326;28;20195;-76
2022/05/17 04:18:51;;;;;;;17.27;7.57;;;;;;;-145.69;100.00;72152.66;5072359;28;20226;-76
2022/05/17 04:21:19;;;;;;;16.93;8.03;;;;;;;-145.69;100.00;72138.72;5073979;28;20563;-76
2022/05/17 04:23:49;;;;;;;17.83;7.73;;;;;;;-145.69;100.00;72140.69;5076244;28;20195;-76
2022/05/17 04:26:18;;;;;;;22.33;7.80;;;;;;;-145.69;100.00;72130.75;5076141;28;20205;-76
2022/05/17 04:28:47;;;;;;;14.03;7.00;;;;;;;-145.69;100.00;72134.72;5075930;28;20199;-76
2022/05/17 04:31:15;;;;;;;17.53;7.80;;;;;;;-145.69;100.00;72130.75;5075985;28;20225;-76
2022/05/17 04:33:42;;;;;;;16.30;7.00;;;;;;;-145.69;100.00;72138.72;5075599;28;20214;-76
2022/05/17 04:36:09;;;;;;;15.00;7.23;;;;;;;-145.69;100.00;72134.72;5076134;28;20206;-76
2022/05/17 04:38:35;;;;;;;14.03;6.87;;;;;;;-145.69;100.00;72126.78;5075781;28;20281;-76
2022/05/17 04:41:02;;;;;;;13.17;7.30;;;;;;;-145.69;100.00;72124.78;5075456;28;20191;-76
2022/05/17 04:43:29;;;;;;;16.60;7.97;;;;;;;-145.69;100.00;72104.88;5075800;28;20210;-76
2022/05/17 04:45:56;;;;;;;20.50;8.00;;;;;;;-145.69;100.00;72098.91;5075866;28;20210;-76
2022/05/17 04:48:24;;;;;;;18.17;7.97;;;;;;;-145.69;100.00;72090.94;5075596;28;20202;-76
2022/05/17 04:50:50;;;;;;;15.53;7.53;;;;;;;-145.69;100.00;72082.97;5075283;28;20231;-76
2022/05/17 04:53:17;;;;;;;15.10;6.87;;;;;;;-145.69;100.00;72071.03;5075556;28;20727;-76
2022/05/17 04:55:47;;;;;;;16.87;7.50;;;;;;;-145.69;100.00;72071.03;5075415;28;20732;-76
2022/05/17 04:58:14;;;;;;;18.90;7.43;;;;;;;-145.69;100.00;72059.09;5075241;28;20685;-76
2022/05/17 05:00:42;;;;;;;17.37;7.20;;;;;;;-145.69;100.00;72063.09;5075361;28;20206;-76
2022/05/17 05:03:09;;;;;;;14.10;6.10;;;;;;;-145.69;100.00;72063.09;5075252;28;20206;-76
2022/05/17 05:05:36;;;;;;;10.57;6.20;;;;;;;-145.69;100.00;72077.00;5075476;28;20206;-76
2022/05/17 05:08:06;;;;;;;12.17;6.50;;;;;;;-145.69;100.00;72067.06;5075399;28;20260;-76
2022/05/17 05:10:32;;;;;;;15.07;7.23;;;;;;;-145.69;100.00;72039.19;5073046;28;20195;-76
2022/05/17 05:12:59;;;;;;;13.93;7.70;;;;;;;-145.69;100.00;72011.34;5075079;28;20672;-76
2022/05/17 05:15:25;;;;;;;13.70;7.70;;;;;;;-145.69;100.00;71979.50;5074956;28;20198;-76
2022/05/17 05:17:53;;;;;;;17.57;7.90;;;;;;;-145.69;100.00;71963.56;5074771;28;20202;-76
2022/05/17 05:20:20;;;;;;;17.50;7.13;;;;;;;-145.69;100.00;71953.63;5074817;28;20238;-76
2022/05/17 05:22:47;;;;;;;15.57;7.43;;;;;;;-145.69;100.00;71935.72;5075217;28;20195;-76
2022/05/17 05:25:15;;;;;;;12.80;7.07;;;;;;;-145.69;100.00;71917.81;5074653;28;20513;-76
2022/05/17 05:27:42;;;;;;;13.30;6.27;;;;;;;-145.69;100.00;71911.84;5074637;28;20257;-76
2022/05/17 05:30:12;;;;;;;10.07;5.33;;;;;;;-145.69;100.00;71909.84;5074803;28;20203;-76
2022/05/17 05:32:39;;;;;;;8.53;5.20;;;;;;;-145.69;100.00;71893.91;5073756;28;20203;-76
2022/05/17 05:35:07;;;;;;;9.17;5.50;;;;;;;-145.69;100.00;71846.16;5074949;28;20195;-76
2022/05/17 05:37:34;;;;;;;7.93;4.70;;;;;;;-145.69;100.00;71780.50;5074735;28;20206;-76
2022/05/17 05:40:00;;;;;;;9.90;4.80;;;;;;;-145.69;100.00;71641.19;5074294;28;20241;-76
2022/05/17 05:42:27;;;;;;;7.80;3.83;;;;;;;-145.69;100.00;71557.59;5074846;28;20206;-77
2022/05/17 05:44:53;;;;;;;6.75;3.60;;;;;;;-145.69;100.00;71458.09;5074423;28;20198;-77
2022/05/17 05:47:20;;;;;;;4.18;2.75;;;;;;;-145.69;100.00;71354.63;5074644;28;20252;-76
2022/05/17 05:49:46;;;;;;;4.15;2.85;;;;;;;-145.69;100.00;71261.13;5074526;28;20205;-77
2022/05/17 05:52:14;;;;;;;3.42;2.45;;;;;;;-145.69;100.00;71185.50;5074429;28;20199;-77
2022/05/17 05:54:41;;;;;;;6.28;2.13;;;;;;;-145.69;100.00;71153.66;5074423;28;20251;-77
2022/05/17 05:57:08;;;;;;;8.32;2.20;;;;;;;-145.69;100.00;71123.81;5074295;28;20233;-77
2022/05/17 05:59:35;;;;;;;3.78;2.15;;;;;;;-145.69;100.00;71080.06;5074061;28;20222;-76
2022/05/17 06:02:01;;;;;;;6.97;2.40;;;;;;;-145.69;100.00;71107.91;5074403;28;20222;-74
2022/05/17 06:04:28;;;;;;;4.40;1.75;;;;;;;-145.69;100.00;71074.09;5074102;28;20226;-74
2022/05/17 06:06:55;;;;;;;4.68;2.13;;;;;;;-145.69;100.00;71076.06;5074045;28;20579;-74
2022/05/17 06:09:23;;;;;;;3.10;1.70;;;;;;;-145.69;100.00;71050.22;5073990;28;20662;-78
2022/05/17 06:11:49;;;;;;;5.10;2.20;;;;;;;-145.69;100.00;71064.13;5073778;28;20613;-76
2022/05/17 06:14:16;;;;;;;5.38;2.30;;;;;;;-145.69;100.00;71107.91;5074241;28;20203;-76
2022/05/17 06:16:42;;;;;;;3.85;1.80;;;;;;;-145.69;100.00;71107.91;5074036;28;20214;-76
2022/05/17 06:19:09;;;;;;;3.92;2.08;;;;;;;-145.69;100.00;71113.88;5073719;28;20724;-76
2022/05/17 06:21:36;;;;;;;5.60;1.83;;;;;;;-145.69;100.00;71095.97;5073910;28;20289;-76
2022/05/17 06:24:03;;;;;;;3.88;1.70;;;;;;;-145.69;100.00;71052.19;5073740;28;20203;-76
2022/05/17 06:26:31;;;;;;;4.47;1.58;;;;;;;-145.69;96.27;71022.34;5073593;28;20598;-76
2022/05/17 06:28:58;;;;;;;4.68;1.92;;;;;;;-145.69;98.69;71056.16;5073855;28;20202;-76
2022/05/17 06:31:25;;;;;;;6.85;2.10;;;;;;;-145.69;92.00;71080.06;5073984;28;20230;-76
2022/05/17 06:33:52;;;;;;;4.88;2.40;;;;;;;-145.69;85.44;71092.00;5073840;28;20500;-76
2022/05/17 06:36:18;;;;;;;6.22;2.20;;;;;;;-145.69;87.93;71066.13;5073760;28;20620;-76
2022/05/17 06:38:45;;;;;;;5.50;2.90;;;;;;;-145.69;81.31;71066.13;5073464;28;20751;-76
2022/05/17 06:41:11;;;;;;;9.95;3.78;;;;;;;-145.69;79.93;71133.78;5073111;28;20645;-75
2022/05/17 06:43:39;;;;;;;5.72;3.03;;;;;;;-145.69;83.31;71139.75;5073432;28;20422;-76
2022/05/17 06:46:06;;;;;;;5.75;2.78;;;;;;;-145.69;77.95;71064.13;5073452;28;20672;-75
2022/05/17 06:48:32;;;;;;;10.13;2.90;;;;;;;-145.69;77.35;71028.31;5072888;28;20202;-75
2022/05/17 06:51:03;;;;;;;10.45;2.60;;;;;;;-145.69;77.63;70982.56;5073271;28;20227;-75
2022/05/17 06:53:30;;;;;;;4.45;2.50;;;;;;;-145.69;78.43;70990.50;5073164;28;20731;-75
2022/05/17 06:55:56;;;;;;;6.18;2.70;;;;;;;-145.69;76.61;70998.47;5073485;28;20202;-75
2022/05/17 06:58:23;;;;;;;7.07;3.10;;;;;;;-145.69;78.92;71068.13;5073354;28;20202;-75
2022/05/17 07:00:51;;;;;;;7.47;3.60;;;;;;;-145.69;75.68;71084.03;5072835;28;20507;-75
2022/05/17 07:03:18;;;;;;;8.57;3.22;;;;;;;-145.69;78.54;71139.75;5073131;28;20676;-75
2022/05/17 07:05:44;;;;;;;8.55;3.25;;;;;;;-145.69;78.57;71119.84;5071709;28;20557;-75
2022/05/17 07:08:10;;;;;;;5.60;3.38;;;;;;;-145.69;81.64;71117.84;5071736;28;20209;-75
2022/05/17 07:13:21;;;;;;;6.80;3.15;;;;;;;-145.69;80.55;71076.06;5051933;28;20198;-75
2022/05/17 07:15:50;;;;;;;6.05;3.10;;;;;;;-145.69;76.95;71086.03;5051948;28;20653;-75
2022/05/17 07:18:20;;;;;;;5.93;3.03;;;;;;;-145.69;78.97;71105.91;5059401;28;20198;-74
2022/05/17 07:20:47;;;;;;;7.85;3.30;;;;;;;-145.69;75.65;71084.03;5072399;28;20222;-75
2022/05/17 07:23:15;;;;;;;5.68;3.47;;;;;;;-145.69;77.16;71088.00;5072896;28;20252;-75
2022/05/17 07:25:43;;;;;;;9.93;4.25;;;;;;;-145.69;78.20;71076.06;5072878;28;20657;-74
2022/05/17 07:28:10;;;;;;;9.57;4.15;;;;;;;-145.69;75.70;71060.16;5072871;28;20286;-75
2022/05/17 07:30:37;;;;;;;9.63;3.55;;;;;;;-145.69;77.64;71147.69;5072999;28;20207;-74
2022/05/17 07:33:03;;;;;;;4.93;3.25;;;;;;;-145.69;79.45;71151.69;5072456;28;20195;-75
2022/05/17 07:35:31;;;;;;;9.23;3.90;;;;;;;-145.69;77.67;71163.63;5073056;28;20206;-73
2022/05/17 07:37:58;;;;;;;6.00;4.00;;;;;;;-145.69;81.65;71129.78;5072942;28;20538;-74
2022/05/17 07:40:25;;;;;;;11.60;4.78;;;;;;;-145.69;78.45;71088.00;5072969;28;20230;-74
2022/05/17 07:42:52;;;;;;;9.48;3.90;;;;;;;-145.69;78.12;71086.03;5072731;28;20199;-74
2022/05/17 07:45:19;;;;;;;9.07;3.63;;;;;;;-145.69;80.80;71103.94;5072696;28;20209;-74
2022/05/17 07:47:46;;;;;;;7.20;3.67;;;;;;;-145.69;84.38;71119.84;5072259;28;20361;-75
2022/05/17 07:50:12;;;;;;;8.68;3.90;;;;;;;-145.69;79.41;71086.03;5072680;28;20231;-75
2022/05/17 07:52:41;;;;;;;10.15;3.50;;;;;;;-145.69;76.32;71038.25;5072840;28;20210;-74
2022/05/17 07:55:09;;;;;;;17.33;5.05;;;;;;;-145.69;76.29;71012.41;5072946;28;20203;-74
2022/05/17 07:57:36;;;;;;;5.43;3.42;;;;;;;-145.69;72.83;71002.44;5076616;28;20206;-74
2022/05/17 08:00:05;;;;;;;8.77;3.53;;;;;;;-145.69;72.56;71002.44;5076191;28;20226;-74
2022/05/17 08:02:32;;;;;;;7.75;3.30;;;;;;;-145.69;71.39;71010.41;5076505;28;20206;-74
2022/05/17 08:04:58;;;;;;;7.30;3.40;;;;;;;-145.69;77.86;70998.47;5076338;28;20195;-74
2022/05/17 08:07:25;;;;;;;6.60;2.80;;;;;;;-145.69;71.48;70972.59;5075860;28;20206;-74
2022/05/17 08:09:53;;;;;;;10.90;3.30;;;;;;;-145.69;73.40;71022.34;5076458;28;20268;-75
2022/05/17 08:12:19;;;;;;;8.73;3.42;;;;;;;-145.69;75.88;71032.28;5074720;28;20199;-75
2022/05/17 08:14:48;;;;;;;8.48;2.75;;;;;;;-145.69;74.38;71006.44;5056108;28;20196;-75
2022/05/17 08:17:15;;;;;;;6.82;3.30;;;;;;;-145.69;71.45;71022.34;5070785;28;20282;-73
2022/05/17 08:19:41;;;;;;;7.93;3.08;;;;;;;-145.69;73.84;71034.28;5056158;28;20242;-75
2022/05/17 08:22:12;;;;;;;5.63;3.10;;;;;;;-145.69;70.21;70980.56;5075237;28;20608;-75
2022/05/17 08:27:36;;;;;;;5.63;3.13;;;;;;;-145.69;69.20;70899.00;5076062;28;20240;-75
2022/05/17 08:30:07;;;;;;;6.68;3.20;;;;;;;-145.69;69.21;70885.06;5075764;28;20209;-74
2022/05/17 08:35:17;;;;;;;9.25;3.58;;;;;;;-145.69;71.05;70996.47;5075433;28;20203;-75
2022/05/17 08:37:44;;;;;;;4.90;2.88;;;;;;;-145.69;71.41;70952.72;5075701;28;20588;-74
2022/05/17 08:40:19;;;;;;;5.85;3.20;;;;;;;-145.69;71.24;70918.88;5075776;28;20281;-75
2022/05/17 08:42:54;;;;;;;6.88;3.30;;;;;;;-145.69;71.90;70829.34;5075396;28;20438;-76
2022/05/17 08:45:32;;;;;;;5.30;2.85;;;;;;;-145.69;61.60;70829.34;5075623;28;20686;-75
2022/05/17 08:47:58;;;;;;;3.88;2.63;;;;;;;-145.69;66.72;70885.06;5075583;28;20556;-74
2022/05/17 08:50:33;;;;;;;10.38;3.35;;;;;;;-145.69;71.48;70885.06;5074910;28;20723;-75
2022/05/17 08:53:01;;;;;;;8.73;3.72;;;;;;;-145.69;75.47;71024.34;5075254;28;20426;-75
2022/05/17 08:55:32;;;;;;;8.40;4.15;;;;;;;-145.69;74.89;70932.81;5075327;28;20289;-75
2022/05/17 08:58:03;;;;;;;5.85;3.42;;;;;;;-145.69;68.79;70895.00;5075476;28;20230;-76
2022/05/17 09:00:36;;;;;;;8.07;3.53;;;;;;;-145.69;73.76;70904.97;5075175;28;20329;-76
2022/05/17 09:03:10;;;;;;;6.68;3.17;;;;;;;-145.69;70.68;70889.03;5075468;28;20202;-77
2022/05/17 09:05:44;;;;;;;8.02;3.60;;;;;;;-145.69;71.75;70893.03;5072985;28;20206;-76
2022/05/17 09:08:17;;;;;;;9.45;3.83;;;;;;;-145.69;71.00;70897.00;5054268;28;20202;-77
2022/05/17 09:10:49;;;;;;;8.10;3.47;;;;;;;-145.69;68.51;70867.16;5055113;28;20210;-76
2022/05/17 09:13:26;;;;;;;8.75;3.50;;;;;;;-145.69;71.50;70853.22;5054687;28;20203;-76
2022/05/17 09:15:56;;;;;;;7.25;3.75;;;;;;;-145.69;68.28;70857.22;5054993;28;20203;-75
2022/05/17 09:18:24;;;;;;;6.53;3.50;;;;;;;-145.69;67.36;70849.25;5055038;28;20203;-74
2022/05/17 09:20:51;;;;;;;5.35;3.00;;;;;;;-145.69;67.23;70841.28;5054936;28;20249;-74
2022/05/17 09:23:17;;;;;;;8.10;3.25;;;;;;;-145.69;70.94;70823.38;5054975;28;20207;-75
2022/05/17 09:25:51;;;;;;;7.95;3.08;;;;;;;-145.69;66.73;70815.44;5054835;28;20203;-75
2022/05/17 09:28:22;;;;;;;7.22;3.25;;;;;;;-145.69;64.67;70833.34;5055083;28;20203;-76
2022/05/17 09:30:49;;;;;;;11.65;3.17;;;;;;;-145.69;67.51;70801.50;5054963;28;20257;-75
2022/05/17 09:33:21;;;;;;;10.05;3.10;;;;;;;-145.69;61.14;70769.66;5054754;28;20195;-76
2022/05/17 09:35:57;;;;;;;8.82;3.35;;;;;;;-145.69;62.86;70789.56;5069545;28;20230;-76
2022/05/17 09:38:24;;;;;;;9.50;3.60;;;;;;;-145.69;64.00;70801.50;5075118;28;20214;-75
2022/05/17 09:40:52;;;;;;;4.57;2.50;;;;;;;-145.69;62.34;70827.38;5074517;28;20237;-75
2022/05/17 09:43:34;;;;;;;10.25;2.72;;;;;;;-145.69;66.50;70793.53;5074395;28;20608;-75
2022/05/17 09:46:10;;;;;;;6.35;2.75;;;;;;;-145.69;63.81;70751.75;5074467;28;20726;-76
2022/05/17 09:54:08;;;;;;;4.00;2.60;;;;;;;-145.69;58.52;70690.09;5074318;28;20256;-76
2022/05/17 09:56:34;;;;;;;5.50;2.72;;;;;;;-145.69;58.17;70717.94;5073929;28;20210;-78
2022/05/17 09:59:21;;;;;;;6.18;2.65;;;;;;;-145.69;61.37;70727.88;5074243;28;20561;-75
2022/05/17 10:01:50;;;;;;;4.68;2.50;;;;;;;-145.69;63.03;70702.03;5073948;28;20223;-76
2022/05/17 10:04:21;;;;;;;5.82;3.15;;;;;;;-145.69;60.54;70692.06;5074039;28;20728;-76
2022/05/17 10:06:53;;;;;;;5.93;2.80;;;;;;;-145.69;56.74;70704.00;5074092;28;20202;-76
2022/05/17 10:09:29;;;;;;;6.53;3.03;;;;;;;-145.69;58.63;70747.78;5073831;28;20211;-76
2022/05/17 10:12:01;;;;;;;6.40;2.63;;;;;;;-145.69;57.05;70777.63;5074065;28;20208;-75
2022/05/17 10:14:35;;;;;;;7.85;2.45;;;;;;;-145.69;59.14;70785.59;5074084;28;20210;-77
2022/05/17 10:17:05;;;;;;;3.15;1.90;;;;;;;-145.69;58.58;70765.69;5074010;28;20198;-76
2022/05/17 10:19:40;;;;;;;4.38;2.40;;;;;;;-145.69;58.62;70745.78;5073461;28;20207;-75
2022/05/17 10:22:16;;;;;;;7.40;2.55;;;;;;;-145.69;59.26;70745.78;5073662;28;20209;-76
2022/05/17 10:24:47;;;;;;;7.72;2.50;;;;;;;-145.69;59.93;70741.81;5073967;28;20288;-75
2022/05/17 10:27:18;;;;;;;4.20;1.88;;;;;;;-145.69;53.47;70719.94;5074014;28;20198;-75
2022/05/17 10:29:51;;;;;;;5.72;2.58;;;;;;;-145.69;53.86;70680.13;5073799;28;20198;-75
2022/05/17 10:32:23;;;;;;;11.52;2.45;;;;;;;-145.69;59.79;70696.06;5073303;28;20256;-76
2022/05/17 10:34:56;;;;;;;4.70;1.90;;;;;;;-145.69;49.19;70654.28;5072607;28;20789;-76
2022/05/17 10:37:27;;;;;;;2.88;1.80;;;;;;;-145.69;52.16;70709.97;5073836;28;20445;-75
2022/05/17 10:39:57;;;;;;;6.72;2.00;;;;;;;-145.69;53.12;70749.78;5073452;28;20210;-76
2022/05/17 10:42:27;;;;;;;4.93;1.92;;;;;;;-145.69;53.23;70825.38;5073444;28;20195;-75
2022/05/17 10:44:56;;;;;;;4.55;1.98;;;;;;;-145.69;54.74;70807.47;5072802;28;20198;-75
2022/05/17 10:47:37;;;;;;;4.53;1.80;;;;;;;-145.69;50.53;70791.56;5072903;28;20199;-76
2022/05/17 10:50:16;;;;;;;6.93;2.05;;;;;;;-145.69;54.06;70745.78;5073152;28;20642;-75
2022/05/17 10:52:59;;;;;;;5.95;2.05;;;;;;;-145.69;54.21;70737.84;5073319;28;20213;-75
2022/05/17 10:55:32;;;;;;;3.38;1.48;;;;;;;-145.69;51.61;70650.28;5073148;28;20203;-76
2022/05/17 10:58:02;;;;;;;7.75;1.55;;;;;;;-145.69;49.48;70698.03;5073396;28;20206;-76
2022/05/17 11:00:37;;;;;;;3.65;1.67;;;;;;;-145.69;49.65;70652.28;5073216;28;20227;-76
2022/05/17 11:03:34;;;;;;;3.78;1.60;;;;;;;-145.69;49.53;70678.16;5053207;28;20276;-76
2022/05/17 11:06:18;;;;;;;4.47;1.88;;;;;;;-145.69;46.61;70676.16;5053223;28;20203;-76
2022/05/17 11:08:52;;;;;;;4.78;2.08;;;;;;;-145.69;49.25;70646.31;5053019;28;20199;-75
2022/05/17 11:11:44;;;;;;;5.22;2.17;;;;;;;-145.69;48.84;70632.38;5072884;28;20260;-75
2022/05/17 11:14:18;;;;;;;5.60;1.65;;;;;;;-145.69;41.82;70598.56;5072807;28;20203;-76
2022/05/17 11:16:57;;;;;;;3.88;1.50;;;;;;;-145.69;42.90;70594.59;5072805;28;20684;-76
2022/05/17 11:19:29;;;;;;;1.92;1.30;;;;;;;-145.69;44.81;70618.47;5073062;28;20205;-77
2022/05/17 11:22:05;;;;;;;2.72;1.02;;;;;;;-145.69;45.43;70634.38;5072319;28;20226;-76
2022/05/17 11:25:00;;;;;;;4.95;1.40;;;;;;;-145.69;45.61;70630.41;5072751;28;20241;-76
2022/05/17 11:27:51;;;;;;;4.45;1.50;;;;;;;-145.69;45.77;70717.94;5072998;28;20198;-75
2022/05/17 11:30:26;;;;;;;5.05;1.20;;;;;;;-145.69;51.44;70698.03;5072020;28;20264;-76
2022/05/17 11:33:26;;;;;;;1.67;1.00;;;;;;;-145.69;49.85;70656.25;5072475;28;20199;-76
2022/05/17 11:35:54;;;;;;;1.42;1.08;;;;;;;-145.69;44.90;70630.41;5072930;28;20198;-75